Time;durP1;ratioP1;P1;durP2;ratioP2;P2;SDS_P1;SDS_P2;PMS_P1;PMS_P2;Temp;Humidity;BMP_temperature;BMP_pressure;BME280_temperature;BME280_humidity;BME280_pressure;Samples;Min_cycle;Max_cycle;Signal;HPM_P1;HPM_P2
2023/04/05 00:00:59;;;;;;;8.13;3.90;;;2.20;99.90;;;;;;5052004;28;20476;-77
2023/04/05 00:03:24;;;;;;;8.13;3.72;;;2.20;99.90;;;;;;5050817;28;20119;-77
2023/04/05 00:05:53;;;;;;;8.60;3.65;;;2.20;99.90;;;;;;5035097;28;20049;-76
2023/04/05 00:08:25;;;;;;;9.32;3.63;;;2.20;99.90;;;;;;5034859;28;20048;-76
2023/04/05 00:10:52;;;;;;;9.60;3.63;;;2.20;99.90;;;;;;5051107;28;20048;-76
2023/04/05 00:13:17;;;;;;;10.30;4.18;;;2.20;99.90;;;;;;5050831;28;20037;-76
2023/04/05 00:15:43;;;;;;;8.43;3.00;;;2.20;99.90;;;;;;5050674;28;20455;-76
2023/04/05 00:18:20;;;;;;;8.77;3.63;;;2.20;99.90;;;;;;5051393;28;20037;-76
2023/04/05 00:20:52;;;;;;;8.18;3.50;;;2.20;99.90;;;;;;5052865;28;20045;-76
2023/04/05 00:23:19;;;;;;;10.23;4.22;;;2.30;99.90;;;;;;5054372;28;20033;-76
2023/04/05 00:25:45;;;;;;;11.60;4.38;;;2.20;99.90;;;;;;5055183;28;20040;-76
2023/04/05 00:28:11;;;;;;;9.38;4.20;;;2.10;99.90;;;;;;5070041;28;20558;-76
2023/04/05 00:30:37;;;;;;;11.13;4.35;;;2.10;99.90;;;;;;5075322;28;20127;-76
2023/04/05 00:33:03;;;;;;;11.68;4.22;;;2.00;99.90;;;;;;5073057;28;20561;-75
2023/04/05 00:35:29;;;;;;;10.00;4.07;;;2.00;99.90;;;;;;5054791;28;20127;-75
2023/04/05 00:37:55;;;;;;;8.43;3.83;;;2.00;99.90;;;;;;5054879;28;20033;-75
2023/04/05 00:40:25;;;;;;;8.60;3.88;;;2.00;99.90;;;;;;5054816;28;20595;-75
2023/04/05 00:42:50;;;;;;;9.82;4.20;;;1.90;99.90;;;;;;5067682;28;20041;-75
2023/04/05 00:45:16;;;;;;;9.57;3.53;;;1.80;99.90;;;;;;5052690;28;20051;-75
2023/04/05 00:47:42;;;;;;;8.93;4.07;;;1.90;99.90;;;;;;5054588;28;20108;-75
2023/04/05 00:50:10;;;;;;;9.50;4.45;;;1.90;99.90;;;;;;5074882;28;20136;-75
2023/04/05 00:52:39;;;;;;;8.77;4.07;;;1.90;99.90;;;;;;5052983;28;20151;-75
2023/04/05 00:55:06;;;;;;;8.85;4.28;;;1.90;99.90;;;;;;5055410;28;20493;-75
2023/04/05 00:57:34;;;;;;;9.70;3.90;;;1.80;99.90;;;;;;5054782;28;20467;-75
2023/04/05 01:00:03;;;;;;;8.35;3.65;;;1.80;99.90;;;;;;5038091;28;20540;-75
2023/04/05 01:02:38;;;;;;;8.20;3.47;;;1.80;99.90;;;;;;5066357;28;20037;-75
2023/04/05 01:05:11;;;;;;;11.27;4.30;;;1.80;99.90;;;;;;5054394;28;20041;-75
2023/04/05 01:07:50;;;;;;;10.07;3.95;;;1.90;99.90;;;;;;5071057;28;20044;-75
2023/04/05 01:10:19;;;;;;;9.20;3.90;;;1.90;99.90;;;;;;5054349;28;20045;-75
2023/04/05 01:12:45;;;;;;;9.02;3.85;;;1.90;99.90;;;;;;5067209;28;20123;-75
2023/04/05 01:15:11;;;;;;;9.23;3.85;;;1.90;99.90;;;;;;5055946;28;20089;-76
2023/04/05 01:17:37;;;;;;;8.98;3.90;;;1.70;99.90;;;;;;5074127;28;20553;-76
2023/04/05 01:20:09;;;;;;;8.23;3.85;;;1.70;99.90;;;;;;5072908;28;20116;-75
2023/04/05 01:22:58;;;;;;;8.48;4.05;;;1.60;99.90;;;;;;5071816;28;20089;-75
2023/04/05 01:25:48;;;;;;;9.00;4.20;;;1.60;99.90;;;;;;5037315;28;20045;-75
2023/04/05 01:28:56;;;;;;;8.52;3.72;;;1.60;99.90;;;;;;5037345;28;20048;-75
2023/04/05 01:31:35;;;;;;;8.88;3.78;;;1.60;99.90;;;;;;5053001;28;20045;-75
2023/04/05 01:34:52;;;;;;;10.60;4.20;;;1.60;99.90;;;;;;5045699;28;20090;-75
2023/04/05 01:37:21;;;;;;;10.18;4.32;;;1.50;99.90;;;;;;5047512;28;20048;-75
2023/04/05 01:39:49;;;;;;;10.00;4.22;;;1.40;99.90;;;;;;5073762;28;20098;-75
2023/04/05 01:42:22;;;;;;;9.20;3.80;;;1.40;99.90;;;;;;5067755;28;20036;-74
2023/04/05 01:44:47;;;;;;;13.95;5.32;;;1.40;99.90;;;;;;5055616;28;20094;-75
2023/04/05 01:47:13;;;;;;;9.35;3.75;;;1.40;99.90;;;;;;5054347;28;20048;-74
2023/04/05 01:49:38;;;;;;;10.07;4.45;;;1.30;99.90;;;;;;5053791;28;20049;-74
2023/04/05 01:52:04;;;;;;;8.57;3.90;;;1.30;99.90;;;;;;5053522;28;20053;-74
2023/04/05 01:54:29;;;;;;;8.77;3.83;;;1.30;99.90;;;;;;5039170;28;20094;-74
2023/04/05 01:56:55;;;;;;;8.75;3.90;;;1.30;99.90;;;;;;5072934;28;20033;-74
2023/04/05 01:59:21;;;;;;;9.38;3.88;;;1.30;99.90;;;;;;5073345;28;20036;-74
2023/04/05 02:01:46;;;;;;;9.63;3.72;;;1.30;99.90;;;;;;5071415;28;20028;-74
2023/04/05 02:04:12;;;;;;;8.02;3.63;;;1.20;99.90;;;;;;5062247;28;20033;-74
2023/04/05 02:06:37;;;;;;;7.60;3.60;;;1.30;99.90;;;;;;5062887;28;20112;-74
2023/04/05 02:09:03;;;;;;;8.05;3.70;;;1.20;99.90;;;;;;5069030;28;20032;-74
2023/04/05 02:11:32;;;;;;;9.13;3.47;;;1.20;99.90;;;;;;5061740;28;20032;-69
2023/04/05 02:13:57;;;;;;;8.25;3.63;;;1.30;99.90;;;;;;5048555;22;20049;-73
2023/04/05 02:16:25;;;;;;;8.10;3.75;;;1.30;99.90;;;;;;5029601;28;20171;-74
2023/04/05 02:18:56;;;;;;;9.55;4.15;;;1.30;99.90;;;;;;5007958;28;20131;-74
2023/04/05 02:21:22;;;;;;;8.57;3.90;;;1.30;99.90;;;;;;5012650;28;20042;-74
2023/04/05 02:23:48;;;;;;;8.95;4.07;;;1.20;99.90;;;;;;4996050;28;20140;-74
2023/04/05 02:26:14;;;;;;;10.55;4.25;;;1.20;99.90;;;;;;5003623;28;20492;-75
2023/04/05 02:28:39;;;;;;;10.98;4.47;;;1.20;99.90;;;;;;5011186;28;20045;-73
2023/04/05 02:31:10;;;;;;;10.05;4.53;;;1.20;99.90;;;;;;4992749;28;20038;-73
2023/04/05 02:33:35;;;;;;;9.77;4.05;;;1.20;99.90;;;;;;4991475;28;20041;-74
2023/04/05 02:36:05;;;;;;;8.82;4.03;;;1.20;99.90;;;;;;5009752;28;20048;-74
2023/04/05 02:38:34;;;;;;;8.63;3.92;;;1.20;99.90;;;;;;5011162;28;20500;-73
2023/04/05 02:40:59;;;;;;;8.13;4.10;;;1.20;99.90;;;;;;5008152;28;20124;-73
2023/04/05 02:43:25;;;;;;;11.20;4.22;;;1.20;99.90;;;;;;5010767;28;20546;-74
2023/04/05 02:45:51;;;;;;;11.00;4.53;;;1.20;99.90;;;;;;4995037;28;20441;-73
2023/04/05 02:48:17;;;;;;;11.18;4.78;;;1.10;99.90;;;;;;5030396;28;20041;-73
2023/04/05 02:50:48;;;;;;;11.02;5.18;;;1.10;99.90;;;;;;5020994;28;20128;-73
2023/04/05 02:53:14;;;;;;;10.35;4.50;;;1.00;99.90;;;;;;5016749;28;20049;-73
2023/04/05 02:55:41;;;;;;;10.55;4.65;;;1.00;99.90;;;;;;5008314;28;20406;-74
2023/04/05 02:58:07;;;;;;;11.43;4.78;;;0.90;99.90;;;;;;5008012;28;20499;-74
2023/04/05 03:00:33;;;;;;;10.18;5.35;;;1.00;99.90;;;;;;5009945;28;20034;-74
2023/04/05 03:02:58;;;;;;;10.35;4.72;;;1.00;99.90;;;;;;5027009;28;20449;-74
2023/04/05 03:05:24;;;;;;;9.88;4.45;;;1.00;99.90;;;;;;4991737;28;20092;-73
2023/04/05 03:07:50;;;;;;;9.32;4.20;;;0.90;99.90;;;;;;5012401;28;20065;-74
2023/04/05 03:10:21;;;;;;;10.13;4.82;;;0.90;99.90;;;;;;5016823;28;20073;-74
2023/04/05 03:12:47;;;;;;;10.38;4.40;;;1.00;99.90;;;;;;5010180;28;20092;-73
2023/04/05 03:15:13;;;;;;;9.75;4.38;;;1.00;99.90;;;;;;5010604;28;20458;-73
2023/04/05 03:17:38;;;;;;;10.20;4.10;;;1.00;99.90;;;;;;5007468;28;20069;-73
2023/04/05 03:20:06;;;;;;;11.20;4.68;;;1.00;99.90;;;;;;5009950;28;20393;-74
2023/04/05 03:22:32;;;;;;;8.30;4.20;;;1.00;99.90;;;;;;4994017;28;20103;-74
2023/04/05 03:24:58;;;;;;;9.07;4.13;;;0.90;99.90;;;;;;5009725;28;20044;-74
2023/04/05 03:27:24;;;;;;;8.27;4.22;;;0.90;99.90;;;;;;5011472;28;20401;-73
2023/04/05 03:29:50;;;;;;;9.27;4.20;;;1.00;99.90;;;;;;5010786;28;20081;-74
2023/04/05 03:32:16;;;;;;;9.82;4.47;;;0.90;99.90;;;;;;5008531;28;20129;-73
2023/04/05 03:34:42;;;;;;;10.30;4.97;;;0.90;99.90;;;;;;5002320;28;20505;-74
2023/04/05 03:37:08;;;;;;;10.30;4.60;;;0.90;99.90;;;;;;5011577;28;20096;-74
2023/04/05 03:39:34;;;;;;;10.95;4.40;;;0.90;99.90;;;;;;5005747;28;20041;-74
2023/04/05 03:42:00;;;;;;;9.35;4.05;;;0.90;99.90;;;;;;5010314;28;20466;-73
2023/04/05 03:44:26;;;;;;;9.68;4.30;;;0.80;99.90;;;;;;5009686;28;20601;-73
2023/04/05 03:46:51;;;;;;;9.13;3.78;;;0.80;99.90;;;;;;5003583;28;20034;-73
2023/04/05 03:49:18;;;;;;;10.05;4.18;;;0.80;99.90;;;;;;5011210;28;20053;-73
2023/04/05 03:51:45;;;;;;;10.23;4.47;;;0.80;99.90;;;;;;5000795;28;20506;-73
2023/04/05 03:54:11;;;;;;;11.98;5.28;;;0.70;99.90;;;;;;5013546;28;20045;-73
2023/04/05 03:56:36;;;;;;;9.90;4.65;;;0.70;99.90;;;;;;4997690;28;20107;-73
2023/04/05 03:59:02;;;;;;;12.90;5.40;;;0.60;99.90;;;;;;5012402;28;20030;-73
2023/04/05 04:01:28;;;;;;;10.10;4.35;;;0.70;99.90;;;;;;5013126;28;20088;-73
2023/04/05 04:03:53;;;;;;;10.27;4.63;;;0.70;99.90;;;;;;5012801;28;20034;-73
2023/04/05 04:06:19;;;;;;;9.77;5.00;;;0.60;99.90;;;;;;4996663;28;20037;-73
2023/04/05 04:08:45;;;;;;;11.48;4.57;;;0.60;99.90;;;;;;4984126;28;20045;-73
2023/04/05 04:11:10;;;;;;;11.15;4.82;;;0.50;99.90;;;;;;4990137;28;20041;-74
2023/04/05 04:13:36;;;;;;;8.55;4.10;;;0.60;99.90;;;;;;5012474;28;20054;-73
2023/04/05 04:16:02;;;;;;;10.38;4.60;;;0.50;99.90;;;;;;5008223;28;20058;-74
2023/04/05 04:18:28;;;;;;;9.65;4.53;;;0.50;99.90;;;;;;5031127;28;20037;-73
2023/04/05 04:20:53;;;;;;;10.80;5.15;;;0.50;99.90;;;;;;5013957;28;20034;-73
2023/04/05 04:23:19;;;;;;;9.85;4.85;;;0.40;99.90;;;;;;5003996;28;20135;-74
2023/04/05 04:25:45;;;;;;;10.45;5.10;;;0.40;99.90;;;;;;5008403;28;20501;-73
2023/04/05 04:28:11;;;;;;;13.40;5.68;;;0.40;99.90;;;;;;4996704;28;20482;-74
2023/04/05 04:30:37;;;;;;;10.90;5.50;;;0.40;99.90;;;;;;5013903;28;20049;-74
2023/04/05 04:33:03;;;;;;;13.93;5.68;;;0.40;99.90;;;;;;5011838;28;20042;-74
2023/04/05 04:35:32;;;;;;;10.15;4.80;;;0.30;99.90;;;;;;5013054;28;20042;-73
2023/04/05 04:38:00;;;;;;;11.30;4.93;;;0.30;99.90;;;;;;4995847;28;20124;-74
2023/04/05 04:40:38;;;;;;;11.43;6.05;;;0.20;99.90;;;;;;4994850;28;20049;-73
2023/04/05 04:43:13;;;;;;;11.68;6.00;;;0.20;99.90;;;;;;4999663;28;20045;-73
2023/04/05 04:45:45;;;;;;;13.38;6.25;;;0.10;99.90;;;;;;5014428;28;20128;-73
2023/04/05 04:48:13;;;;;;;10.32;6.00;;;0.10;99.90;;;;;;5013950;28;20441;-74
2023/04/05 04:50:39;;;;;;;14.23;6.38;;;0.10;99.90;;;;;;5008130;28;20678;-73
2023/04/05 04:53:05;;;;;;;12.90;6.70;;;0.10;99.90;;;;;;4997535;28;20049;-73
2023/04/05 04:55:32;;;;;;;13.80;6.53;;;0.10;99.90;;;;;;5013400;28;20049;-74
2023/04/05 04:57:58;;;;;;;12.35;5.50;;;0.10;99.90;;;;;;4998164;28;20092;-73
2023/04/05 05:00:24;;;;;;;12.38;6.72;;;0.10;99.90;;;;;;5012712;28;20046;-74
2023/04/05 05:02:54;;;;;;;12.88;6.20;;;0.20;99.90;;;;;;4994217;28;20038;-73
2023/04/05 05:05:21;;;;;;;11.45;6.30;;;0.10;99.90;;;;;;4993485;28;20069;-74
2023/04/05 05:07:48;;;;;;;14.27;6.35;;;0.10;99.90;;;;;;5012788;28;20384;-73
2023/04/05 05:10:15;;;;;;;12.82;6.45;;;0.10;99.90;;;;;;5012836;28;20080;-73
2023/04/05 05:12:41;;;;;;;12.32;6.22;;;0.10;99.90;;;;;;5011418;28;20049;-73
2023/04/05 05:15:07;;;;;;;9.27;4.90;;;0.20;99.90;;;;;;4994494;28;20050;-73
2023/04/05 05:17:34;;;;;;;10.30;4.47;;;0.20;99.90;;;;;;5010051;28;20038;-73
2023/04/05 05:20:00;;;;;;;11.82;5.60;;;0.20;99.90;;;;;;5013956;28;20029;-74
2023/04/05 05:22:26;;;;;;;10.60;4.75;;;0.20;99.90;;;;;;5009032;28;20034;-73
2023/04/05 05:24:52;;;;;;;10.98;5.15;;;0.20;99.90;;;;;;4994174;28;20046;-73
2023/04/05 05:27:18;;;;;;;11.98;5.60;;;0.20;99.90;;;;;;5006906;28;20059;-73
2023/04/05 05:29:44;;;;;;;11.25;6.07;;;0.20;99.90;;;;;;5014505;28;20095;-73
2023/04/05 05:32:14;;;;;;;10.25;5.90;;;0.20;99.90;;;;;;4996614;28;20046;-74
2023/04/05 05:34:40;;;;;;;11.68;4.80;;;0.20;99.90;;;;;;4995703;28;20042;-73
2023/04/05 05:37:08;;;;;;;10.63;4.70;;;0.20;99.90;;;;;;4995976;28;20482;-74
2023/04/05 05:39:35;;;;;;;12.18;6.32;;;0.20;99.90;;;;;;5010098;28;20061;-73
2023/04/05 05:42:02;;;;;;;11.38;5.32;;;0.20;99.90;;;;;;5009393;28;20042;-73
2023/04/05 05:44:28;;;;;;;10.50;4.93;;;0.30;99.90;;;;;;4990634;28;20034;-73
2023/04/05 05:46:53;;;;;;;11.10;4.93;;;0.20;99.90;;;;;;5010239;28;20038;-73
2023/04/05 05:49:19;;;;;;;9.43;4.97;;;0.30;99.90;;;;;;5004723;28;20483;-74
2023/04/05 05:51:45;;;;;;;12.32;5.30;;;0.30;99.90;;;;;;5005908;28;20379;-73
2023/04/05 05:54:10;;;;;;;10.88;5.72;;;0.30;99.90;;;;;;5014096;28;20048;-73
2023/04/05 05:56:36;;;;;;;11.40;5.18;;;0.30;99.90;;;;;;5009812;28;20045;-73
2023/04/05 05:59:01;;;;;;;10.57;5.00;;;0.30;99.90;;;;;;5013913;28;20394;-73
2023/04/05 06:01:28;;;;;;;11.02;4.95;;;0.40;99.90;;;;;;5010378;28;20042;-73
2023/04/05 06:03:54;;;;;;;10.05;5.15;;;0.40;99.90;;;;;;5012914;28;20048;-72
2023/04/05 06:06:20;;;;;;;9.63;5.32;;;0.40;99.90;;;;;;4996751;28;20482;-73
2023/04/05 06:08:46;;;;;;;13.85;7.38;;;0.40;99.90;;;;;;4986693;28;20133;-74
2023/04/05 06:11:20;;;;;;;14.40;7.88;;;0.40;99.90;;;;;;5009292;28;20462;-73
2023/04/05 06:13:46;;;;;;;13.00;7.85;;;0.40;99.90;;;;;;5015085;28;20073;-74
2023/04/05 06:16:11;;;;;;;11.90;6.50;;;0.50;99.90;;;;;;5009993;28;20499;-73
2023/04/05 06:18:37;;;;;;;10.43;5.63;;;0.50;99.90;;;;;;5012171;28;20046;-72
2023/04/05 06:21:02;;;;;;;14.20;6.40;;;0.60;99.90;;;;;;5012157;28;20033;-72
2023/04/05 06:23:28;;;;;;;12.52;6.70;;;0.60;99.90;;;;;;5021162;28;20061;-72
2023/04/05 06:25:55;;;;;;;11.20;5.57;;;0.60;99.90;;;;;;5017908;28;20045;-73
2023/04/05 06:28:21;;;;;;;12.40;6.07;;;0.70;99.90;;;;;;4995412;28;20129;-73
2023/04/05 06:30:47;;;;;;;10.90;5.22;;;0.70;99.90;;;;;;5010152;28;20121;-72
2023/04/05 06:33:13;;;;;;;12.90;6.82;;;0.80;99.90;;;;;;5011740;28;20089;-72
2023/04/05 06:35:39;;;;;;;14.65;7.28;;;0.80;99.90;;;;;;5011911;28;20042;-73
2023/04/05 06:38:04;;;;;;;11.88;7.00;;;0.80;99.90;;;;;;5010572;28;20068;-72
2023/04/05 06:40:30;;;;;;;13.70;7.55;;;0.90;99.90;;;;;;5008911;28;20064;-72
2023/04/05 06:42:56;;;;;;;12.77;7.40;;;1.00;99.90;;;;;;5009467;28;20046;-72
2023/04/05 06:45:22;;;;;;;12.98;7.60;;;1.00;99.90;;;;;;5006888;28;20092;-72
2023/04/05 06:47:48;;;;;;;13.35;7.97;;;1.10;99.90;;;;;;5011804;28;20049;-72
2023/04/05 06:50:13;;;;;;;13.48;7.88;;;1.10;99.90;;;;;;5007758;28;20177;-73
2023/04/05 06:52:39;;;;;;;17.05;9.20;;;1.30;99.90;;;;;;5009571;28;20057;-73
2023/04/05 06:55:05;;;;;;;14.90;8.35;;;1.30;99.90;;;;;;5011059;28;20026;-73
2023/04/05 06:57:31;;;;;;;16.05;9.45;;;1.40;99.90;;;;;;5011096;28;20034;-72
2023/04/05 06:59:57;;;;;;;15.45;9.20;;;1.50;99.90;;;;;;4994317;28;20088;-72
2023/04/05 07:02:22;;;;;;;15.50;9.68;;;1.60;99.90;;;;;;5001989;28;20042;-72
2023/04/05 07:04:48;;;;;;;17.83;10.68;;;1.70;99.90;;;;;;5001896;28;20053;-72
2023/04/05 07:07:14;;;;;;;15.00;9.98;;;1.80;99.90;;;;;;4993571;28;20042;-72
2023/04/05 07:09:40;;;;;;;15.98;10.70;;;1.90;99.90;;;;;;5007528;28;20035;-72
2023/04/05 07:12:07;;;;;;;14.27;9.35;;;2.10;99.90;;;;;;5001763;28;20274;-73
2023/04/05 07:14:35;;;;;;;15.20;10.63;;;2.30;99.90;;;;;;5007509;28;20045;-73
2023/04/05 07:17:02;;;;;;;16.33;10.30;;;2.40;99.90;;;;;;5011355;28;20038;-72
2023/04/05 07:19:28;;;;;;;14.73;9.00;;;2.50;99.90;;;;;;4998484;28;20029;-72
2023/04/05 07:21:55;;;;;;;12.30;8.68;;;2.60;99.90;;;;;;5010096;28;20037;-73
2023/04/05 07:24:21;;;;;;;15.45;9.43;;;2.80;99.90;;;;;;5011161;28;20133;-73
2023/04/05 07:26:46;;;;;;;15.13;9.05;;;2.90;99.90;;;;;;5012020;28;20136;-72
2023/04/05 07:29:12;;;;;;;15.15;9.50;;;3.00;99.90;;;;;;5009405;28;20030;-73
2023/04/05 07:31:39;;;;;;;16.65;9.27;;;3.10;99.90;;;;;;5005778;28;20042;-73
2023/04/05 07:34:05;;;;;;;18.45;9.43;;;3.20;99.90;;;;;;5011045;28;20030;-73
2023/04/05 07:36:31;;;;;;;13.93;9.63;;;3.30;99.90;;;;;;5010522;28;20077;-73
2023/04/05 07:38:57;;;;;;;15.20;9.15;;;3.30;99.90;;;;;;5006574;28;20459;-73
2023/04/05 07:41:30;;;;;;;14.48;9.50;;;3.40;99.90;;;;;;5003913;28;20106;-73
2023/04/05 07:43:56;;;;;;;14.75;8.57;;;3.50;99.90;;;;;;5011881;28;20034;-74
2023/04/05 07:46:22;;;;;;;14.93;9.00;;;3.60;99.90;;;;;;4997036;28;20041;-74
2023/04/05 07:48:47;;;;;;;12.52;8.68;;;3.70;99.90;;;;;;5006361;28;20042;-74
2023/04/05 07:51:13;;;;;;;12.93;8.35;;;3.80;99.90;;;;;;5001525;28;20042;-74
2023/04/05 07:53:40;;;;;;;16.48;8.98;;;3.90;99.90;;;;;;4993459;28;20512;-73
2023/04/05 07:56:07;;;;;;;16.15;9.45;;;4.10;99.90;;;;;;5010406;28;20064;-73
2023/04/05 07:58:34;;;;;;;12.45;8.65;;;4.10;99.90;;;;;;5009368;28;20043;-73
2023/04/05 08:01:03;;;;;;;12.75;8.18;;;4.30;99.90;;;;;;5010321;28;20387;-73
2023/04/05 08:03:30;;;;;;;13.63;8.65;;;4.40;99.90;;;;;;5011198;28;20038;-73
2023/04/05 08:05:56;;;;;;;13.68;9.15;;;4.40;99.90;;;;;;4994239;28;20406;-74
2023/04/05 08:08:23;;;;;;;13.40;8.27;;;4.40;99.90;;;;;;5006599;28;20034;-74
2023/04/05 08:10:49;;;;;;;11.73;6.80;;;4.60;99.90;;;;;;5010039;28;20056;-74
2023/04/05 08:13:15;;;;;;;12.70;7.53;;;4.70;99.90;;;;;;5000036;28;20049;-73
2023/04/05 08:15:41;;;;;;;11.15;7.78;;;4.80;99.90;;;;;;4990085;28;20062;-74
2023/04/05 08:18:06;;;;;;;14.63;8.50;;;4.90;99.90;;;;;;5020811;28;20034;-73
2023/04/05 08:20:37;;;;;;;12.32;7.40;;;4.90;99.90;;;;;;4990084;28;20043;-73
2023/04/05 08:23:03;;;;;;;10.65;7.05;;;4.90;99.90;;;;;;4995289;28;20042;-73
2023/04/05 08:25:29;;;;;;;12.35;6.82;;;5.10;99.90;;;;;;5027625;28;20091;-73
2023/04/05 08:27:55;;;;;;;11.45;7.00;;;5.40;99.90;;;;;;4981400;28;20045;-73
2023/04/05 08:30:22;;;;;;;10.98;7.30;;;5.40;99.90;;;;;;5001152;28;20073;-73
2023/04/05 08:32:47;;;;;;;15.65;7.32;;;5.50;99.90;;;;;;5010280;28;20084;-73
2023/04/05 08:35:13;;;;;;;11.85;7.28;;;5.50;99.90;;;;;;5022254;28;20066;-73
2023/04/05 08:37:39;;;;;;;11.73;7.07;;;5.60;99.90;;;;;;5026335;28;20037;-73
2023/04/05 08:40:07;;;;;;;12.75;6.97;;;5.80;99.90;;;;;;5008607;28;20568;-74
2023/04/05 08:42:43;;;;;;;10.43;6.57;;;5.90;99.90;;;;;;5010539;28;20029;-73
2023/04/05 08:45:12;;;;;;;11.35;6.90;;;6.00;99.90;;;;;;5015024;28;20042;-73
2023/04/05 08:47:38;;;;;;;11.60;6.75;;;6.10;99.90;;;;;;5013689;28;20057;-73
2023/04/05 08:50:04;;;;;;;11.55;6.53;;;6.20;99.90;;;;;;5013674;28;20422;-73
2023/04/05 08:52:36;;;;;;;10.23;5.75;;;6.40;99.90;;;;;;5011927;28;20042;-74
2023/04/05 08:55:03;;;;;;;11.05;5.78;;;6.50;99.90;;;;;;5022380;28;20070;-73
2023/04/05 08:57:31;;;;;;;11.98;6.85;;;6.70;99.90;;;;;;5011657;28;20050;-73
2023/04/05 09:00:00;;;;;;;9.65;5.97;;;6.70;99.90;;;;;;4997424;28;20065;-74
2023/04/05 09:02:26;;;;;;;11.70;6.53;;;6.80;99.90;;;;;;5028795;28;20371;-73
2023/04/05 09:04:52;;;;;;;11.30;5.95;;;7.00;99.90;;;;;;5013532;28;20042;-73
2023/04/05 09:07:19;;;;;;;10.30;6.03;;;7.10;99.90;;;;;;4996917;28;20407;-73
2023/04/05 09:09:52;;;;;;;10.82;5.10;;;7.20;99.90;;;;;;4993167;28;20503;-73
2023/04/05 09:12:23;;;;;;;9.73;4.40;;;7.20;99.90;;;;;;5010296;28;20156;-73
2023/04/05 09:14:50;;;;;;;11.13;5.15;;;7.30;99.90;;;;;;5008479;28;20049;-73
2023/04/05 09:17:20;;;;;;;9.57;4.18;;;7.40;99.90;;;;;;5012041;28;20087;-73
2023/04/05 09:19:48;;;;;;;9.52;4.50;;;7.40;99.90;;;;;;5013255;28;20033;-73
2023/04/05 09:22:17;;;;;;;9.77;4.50;;;7.60;99.90;;;;;;4993507;28;20076;-73
2023/04/05 09:24:45;;;;;;;8.13;4.03;;;7.70;99.90;;;;;;4995614;28;20030;-73
2023/04/05 09:27:16;;;;;;;8.95;4.72;;;7.90;99.90;;;;;;5013139;28;20049;-73
2023/04/05 09:29:44;;;;;;;9.00;5.20;;;8.10;99.90;;;;;;5012116;28;20038;-74
2023/04/05 09:32:11;;;;;;;19.13;5.47;;;8.10;99.90;;;;;;5012818;28;20037;-73
2023/04/05 09:34:38;;;;;;;12.35;5.38;;;8.20;99.90;;;;;;5010222;28;20549;-73
2023/04/05 09:37:13;;;;;;;10.90;4.68;;;8.30;99.90;;;;;;5012681;28;20042;-73
2023/04/05 09:39:39;;;;;;;9.55;4.90;;;8.20;96.40;;;;;;5013727;28;20470;-73
2023/04/05 09:42:10;;;;;;;10.18;4.82;;;8.40;99.90;;;;;;5009625;28;20066;-73
2023/04/05 09:44:56;;;;;;;7.68;4.40;;;8.50;99.90;;;;;;5013754;28;20038;-73
2023/04/05 09:47:33;;;;;;;7.47;3.80;;;8.40;99.90;;;;;;4997173;28;20041;-73
2023/04/05 09:50:15;;;;;;;8.18;4.18;;;8.60;99.90;;;;;;4992336;28;20392;-73
2023/04/05 09:52:42;;;;;;;8.60;2.97;;;8.70;99.90;;;;;;5008539;28;20054;-73
2023/04/05 09:55:08;;;;;;;7.47;2.97;;;8.70;99.80;;;;;;5007636;28;20093;-73
2023/04/05 09:57:35;;;;;;;7.15;3.20;;;8.80;96.20;;;;;;5013419;28;20398;-73
2023/04/05 10:00:04;;;;;;;9.27;5.15;;;8.80;97.00;;;;;;5012910;28;20030;-73
2023/04/05 10:02:39;;;;;;;8.48;3.50;;;8.80;94.50;;;;;;4994727;28;20034;-73
2023/04/05 10:05:07;;;;;;;8.65;4.13;;;8.90;98.00;;;;;;4995789;28;20459;-73
2023/04/05 10:07:33;;;;;;;8.35;4.50;;;9.10;97.20;;;;;;5012527;28;20049;-73
2023/04/05 10:10:00;;;;;;;11.02;4.97;;;9.10;97.40;;;;;;4991673;28;20042;-73
2023/04/05 10:12:27;;;;;;;8.13;4.22;;;9.10;93.20;;;;;;5025261;28;20076;-73
2023/04/05 10:14:56;;;;;;;9.35;5.10;;;9.20;97.10;;;;;;5008616;28;20133;-74
2023/04/05 10:17:37;;;;;;;9.82;5.90;;;9.30;97.40;;;;;;5011774;28;20077;-73
2023/04/05 10:20:17;;;;;;;9.32;4.60;;;9.50;96.40;;;;;;5002482;28;20126;-74
2023/04/05 10:23:20;;;;;;;10.20;5.18;;;9.50;95.70;;;;;;4995691;28;20044;-73
2023/04/05 10:25:52;;;;;;;9.38;4.57;;;9.60;93.80;;;;;;5013108;28;20042;-73
2023/04/05 10:28:31;;;;;;;8.45;4.20;;;9.50;94.80;;;;;;5012676;28;20049;-73
2023/04/05 10:31:21;;;;;;;9.07;3.95;;;9.60;94.90;;;;;;5010556;28;20034;-73
2023/04/05 10:33:48;;;;;;;8.80;4.50;;;9.70;92.90;;;;;;4985778;28;20041;-74
2023/04/05 10:36:45;;;;;;;8.23;4.30;;;9.70;93.70;;;;;;5011731;28;20185;-73
2023/04/05 10:39:10;;;;;;;11.02;5.05;;;9.70;92.30;;;;;;4996166;28;20046;-73
2023/04/05 10:41:45;;;;;;;7.82;3.80;;;9.60;91.00;;;;;;4995911;28;20168;-73
2023/04/05 10:44:11;;;;;;;8.32;4.35;;;9.60;92.20;;;;;;5008793;28;20506;-75
2023/04/05 10:46:39;;;;;;;9.57;4.32;;;9.80;90.10;;;;;;4984086;28;20500;-74
2023/04/05 10:49:19;;;;;;;7.78;4.15;;;9.60;83.50;;;;;;5010576;28;20037;-73
2023/04/05 10:51:45;;;;;;;9.43;4.40;;;9.70;92.60;;;;;;5007058;28;20045;-74
2023/04/05 10:54:11;;;;;;;7.90;3.92;;;9.70;92.20;;;;;;4992743;28;20081;-73
2023/04/05 10:56:38;;;;;;;10.45;4.22;;;9.80;94.10;;;;;;5009634;28;20116;-74
2023/04/05 10:59:05;;;;;;;7.78;4.30;;;9.80;92.40;;;;;;5010353;28;20156;-74
2023/04/05 11:01:31;;;;;;;10.35;4.50;;;10.00;91.90;;;;;;4992109;28;20494;-74
2023/04/05 11:04:13;;;;;;;9.00;4.93;;;10.00;90.30;;;;;;5011826;28;20034;-73
2023/04/05 11:06:38;;;;;;;11.75;5.15;;;9.90;88.20;;;;;;4980458;28;20590;-73
2023/04/05 11:09:17;;;;;;;7.13;3.75;;;9.80;90.20;;;;;;5007981;28;20486;-73
2023/04/05 11:11:50;;;;;;;10.07;4.50;;;10.00;90.30;;;;;;5010961;28;20053;-73
2023/04/05 11:14:19;;;;;;;7.00;3.45;;;10.00;89.30;;;;;;4991598;28;20129;-73
2023/04/05 11:16:48;;;;;;;11.68;4.68;;;10.00;87.50;;;;;;5011376;28;20522;-73
2023/04/05 11:19:16;;;;;;;8.50;3.92;;;10.00;85.50;;;;;;5009386;28;20048;-74
2023/04/05 11:21:43;;;;;;;8.10;4.25;;;10.00;84.80;;;;;;5026085;28;20049;-73
2023/04/05 11:24:15;;;;;;;11.25;3.80;;;10.10;86.10;;;;;;5009159;28;20503;-74
2023/04/05 11:26:47;;;;;;;9.15;4.35;;;10.00;86.30;;;;;;4994740;28;20057;-73
2023/04/05 11:29:15;;;;;;;8.60;4.25;;;10.20;79.60;;;;;;5011461;28;20493;-73
2023/04/05 11:32:05;;;;;;;8.43;4.07;;;10.10;83.00;;;;;;5010636;28;20569;-74
2023/04/05 11:34:35;;;;;;;9.48;4.28;;;10.00;83.60;;;;;;5006418;28;20049;-74
2023/04/05 11:37:01;;;;;;;8.57;3.70;;;10.00;83.60;;;;;;5005800;28;20030;-74
2023/04/05 11:39:27;;;;;;;11.65;3.80;;;10.00;87.80;;;;;;5013072;28;20079;-73
2023/04/05 11:41:55;;;;;;;9.02;4.10;;;10.00;84.60;;;;;;5004454;28;20513;-74
2023/04/05 11:44:23;;;;;;;7.40;4.22;;;10.30;75.40;;;;;;5024380;28;20042;-74
2023/04/05 11:46:49;;;;;;;8.10;4.20;;;10.20;75.80;;;;;;4989661;28;20045;-74
2023/04/05 11:49:15;;;;;;;11.20;4.47;;;9.90;79.70;;;;;;5010572;28;20042;-74
2023/04/05 11:51:41;;;;;;;9.48;4.53;;;9.90;83.70;;;;;;5002220;28;20124;-74
2023/04/05 11:54:08;;;;;;;9.27;4.35;;;10.00;81.60;;;;;;5026040;28;20128;-74
2023/04/05 11:56:34;;;;;;;7.70;4.25;;;10.00;79.20;;;;;;5011003;28;20048;-74
2023/04/05 11:59:00;;;;;;;8.70;4.50;;;10.00;79.50;;;;;;5008344;28;20034;-74
2023/04/05 12:01:25;;;;;;;7.57;3.95;;;10.20;76.60;;;;;;5010343;28;20115;-74
2023/04/05 12:03:55;;;;;;;8.98;3.70;;;10.10;76.50;;;;;;5011076;28;20034;-74
2023/04/05 12:06:22;;;;;;;8.73;4.53;;;10.10;74.30;;;;;;5008046;28;20049;-74
2023/04/05 12:08:51;;;;;;;8.68;4.70;;;9.70;69.50;;;;;;5003486;28;20046;-74
2023/04/05 12:11:29;;;;;;;8.63;4.32;;;9.80;75.10;;;;;;5006247;28;20092;-74
2023/04/05 12:14:00;;;;;;;7.47;4.32;;;9.90;80.40;;;;;;5008366;28;20050;-74
2023/04/05 12:16:26;;;;;;;6.88;3.05;;;9.90;78.70;;;;;;4992514;28;20125;-74
2023/04/05 12:19:00;;;;;;;8.55;4.55;;;10.10;80.30;;;;;;4996185;28;20368;-74
2023/04/05 12:21:27;;;;;;;8.38;4.05;;;10.20;79.70;;;;;;5002724;28;20080;-74
2023/04/05 12:23:53;;;;;;;8.40;4.32;;;10.20;81.20;;;;;;5030490;28;20042;-73
2023/04/05 12:26:18;;;;;;;7.95;4.20;;;10.20;74.80;;;;;;5015141;28;20041;-74
2023/04/05 12:28:59;;;;;;;8.20;3.95;;;10.20;75.60;;;;;;5014480;28;20038;-74
2023/04/05 12:31:38;;;;;;;7.88;4.03;;;10.10;72.20;;;;;;5013750;28;20041;-74
2023/04/05 12:34:04;;;;;;;7.65;3.97;;;10.10;77.10;;;;;;5008103;28;20054;-74
2023/04/05 12:36:31;;;;;;;9.05;4.10;;;10.10;77.40;;;;;;5014581;28;20494;-74
2023/04/05 12:38:57;;;;;;;11.35;4.22;;;10.20;78.40;;;;;;4999291;28;20110;-66
2023/04/05 12:41:30;;;;;;;7.47;4.60;;;10.20;81.10;;;;;;5009854;28;20050;-71
2023/04/05 12:44:00;;;;;;;8.15;3.95;;;10.20;79.20;;;;;;4996117;28;20129;-72
2023/04/05 12:46:45;;;;;;;9.85;4.53;;;10.20;77.80;;;;;;5006402;28;20049;-72
2023/04/05 12:49:15;;;;;;;9.05;4.07;;;10.30;78.40;;;;;;4997005;28;20053;-71
2023/04/05 12:51:45;;;;;;;10.45;4.00;;;10.50;76.30;;;;;;5013853;28;20042;-71
2023/04/05 12:54:19;;;;;;;8.43;3.55;;;10.40;78.50;;;;;;5012340;28;20053;-70
2023/04/05 12:56:44;;;;;;;8.30;4.40;;;10.40;78.00;;;;;;5013184;28;20045;-70